Time;durP1;ratioP1;P1;durP2;ratioP2;P2;SDS_P1;SDS_P2;PMS_P1;PMS_P2;Temp;Humidity;BMP_temperature;BMP_pressure;BME280_temperature;BME280_humidity;BME280_pressure;Samples;Min_cycle;Max_cycle;Signal;HPM_P1;HPM_P2
2023/03/03 05:13:52;;;;;;;67.60;31.52;;;;;;;-0.22;100.00;100419.22;5559837;32;191508;-86
2023/03/03 05:16:55;;;;;;;61.85;32.38;;;;;;;-0.25;100.00;100416.63;5545909;32;33544;-86
2023/03/03 05:19:57;;;;;;;64.07;33.15;;;;;;;-0.24;100.00;100418.38;5545456;32;33957;-86
2023/03/03 05:23:01;;;;;;;56.50;29.42;;;;;;;-0.25;100.00;100419.22;5546399;32;34062;-86
2023/03/03 05:26:03;;;;;;;61.10;31.55;;;;;;;-0.23;100.00;100424.44;5559102;32;34112;-86
2023/03/03 05:29:07;;;;;;;59.95;30.20;;;;;;;-0.21;100.00;100427.94;5549919;32;34156;-86
2023/03/03 05:32:10;;;;;;;58.28;31.85;;;;;;;-0.19;100.00;100427.03;5559174;32;33773;-86
2023/03/03 05:35:13;;;;;;;57.95;29.95;;;;;;;-0.15;100.00;100423.53;5548426;32;34970;-86
2023/03/03 05:38:15;;;;;;;54.53;29.15;;;;;;;-0.09;100.00;100421.78;5544933;32;34667;-86
2023/03/03 05:41:18;;;;;;;58.35;30.15;;;;;;;-0.04;100.00;100430.47;5545323;32;34496;-86
2023/03/03 05:44:21;;;;;;;52.85;28.25;;;;;;;0.09;100.00;100433.84;5545473;32;34007;-86
2023/03/03 05:47:24;;;;;;;50.42;28.67;;;;;;;0.11;100.00;100432.97;5546207;32;35133;-86
2023/03/03 05:50:26;;;;;;;54.55;28.60;;;;;;;0.25;100.00;100432.88;5548468;32;34599;-86
2023/03/03 05:53:29;;;;;;;51.20;27.85;;;;;;;0.28;100.00;100433.75;5546771;32;34286;-86
2023/03/03 05:56:32;;;;;;;55.30;28.05;;;;;;;0.30;100.00;100430.25;5546161;32;33907;-86
2023/03/03 05:59:36;;;;;;;48.63;27.67;;;;;;;0.39;100.00;100434.53;5545307;32;34640;-86
2023/03/03 06:02:40;;;;;;;49.78;28.10;;;;;;;0.50;100.00;100440.56;5550199;32;34084;-86
2023/03/03 06:05:43;;;;;;;56.25;28.83;;;;;;;0.71;100.00;100438.69;5547698;32;33539;-86
2023/03/03 06:08:46;;;;;;;51.60;28.75;;;;;;;0.73;100.00;100442.12;5546278;32;33768;-86
2023/03/03 06:11:48;;;;;;;50.17;27.60;;;;;;;0.82;100.00;100437.72;5547081;32;34404;-86
2023/03/03 06:14:51;;;;;;;56.08;28.98;;;;;;;0.95;100.00;100439.31;5549061;32;33704;-86
2023/03/03 06:17:54;;;;;;;51.97;29.05;;;;;;;0.94;100.00;100440.22;5548092;32;34226;-86
2023/03/03 06:20:57;;;;;;;60.58;30.17;;;;;;;1.01;100.00;100444.50;5546491;32;35228;-86
2023/03/03 06:24:00;;;;;;;52.80;29.12;;;;;;;1.14;100.00;100431.31;5540075;32;33767;-86
2023/03/03 06:27:02;;;;;;;52.40;28.83;;;;;;;1.15;100.00;100436.53;5541592;32;34530;-86
2023/03/03 06:30:06;;;;;;;56.20;30.02;;;;;;;1.26;100.00;100441.66;5537953;32;35020;-86
2023/03/03 06:33:09;;;;;;;56.17;30.48;;;;;;;1.21;100.00;100444.31;5533339;32;33768;-90
2023/03/03 06:36:12;;;;;;;54.80;29.17;;;;;;;1.35;100.00;100435.47;5534358;32;34755;-90
2023/03/03 06:39:14;;;;;;;53.78;30.52;;;;;;;1.73;100.00;100435.91;5535438;32;33759;-89
2023/03/03 06:42:18;;;;;;;54.42;29.20;;;;;;;1.91;100.00;100447.03;5536953;32;35217;-90
2023/03/03 06:45:21;;;;;;;53.80;28.23;;;;;;;1.99;100.00;100447.81;5532612;32;33872;-87
2023/03/03 06:48:24;;;;;;;60.67;30.15;;;;;;;2.27;100.00;100452.69;5529017;32;34649;-87
2023/03/03 06:51:33;;;;;;;56.70;31.45;;;;;;;2.28;100.00;100465.72;5548171;32;34217;-86
2023/03/03 06:54:37;;;;;;;59.35;30.85;;;;;;;2.25;100.00;100465.78;5551409;32;34444;-84
2023/03/03 06:57:40;;;;;;;56.15;30.20;;;;;;;2.22;100.00;100465.81;5545164;32;34414;-86
2023/03/03 07:00:52;;;;;;;57.67;31.77;;;;;;;2.28;100.00;100472.72;5553955;32;34089;-89
2023/03/03 07:03:55;;;;;;;59.42;32.63;;;;;;;2.19;100.00;100464.97;5535001;32;34789;-88
2023/03/03 07:07:24;;;;;;;59.33;32.38;;;;;;;2.35;100.00;100473.50;5530700;32;34651;-86
2023/03/03 07:10:29;;;;;;;56.83;30.20;;;;;;;2.43;100.00;100469.88;5538573;32;33958;-87
2023/03/03 07:13:33;;;;;;;53.25;29.52;;;;;;;2.74;100.00;100479.03;5542286;32;34499;-87
2023/03/03 07:16:36;;;;;;;52.30;27.83;;;;;;;2.89;100.00;100472.69;5540239;32;34152;-86
2023/03/03 07:19:40;;;;;;;47.60;28.08;;;;;;;3.16;100.00;100482.75;5555783;32;34977;-86
2023/03/03 07:22:42;;;;;;;46.65;27.20;;;;;;;3.40;100.00;100478.81;5520903;32;34396;-87
2023/03/03 07:25:45;;;;;;;53.08;29.37;;;;;;;3.53;100.00;100476.84;5538294;32;34912;-87
2023/03/03 07:28:55;;;;;;;50.63;27.77;;;;;;;3.36;100.00;100480.63;5555988;32;34012;-86
2023/03/03 07:32:00;;;;;;;51.65;28.23;;;;;;;3.32;100.00;100488.59;5563993;32;33694;-87
2023/03/03 07:35:22;;;;;;;53.80;29.23;;;;;;;3.34;100.00;100489.41;5555672;31;33772;-86
2023/03/03 07:38:36;;;;;;;51.78;29.75;;;;;;;3.43;100.00;100491.88;5553628;32;33929;-86
2023/03/03 07:41:39;;;;;;;45.33;27.50;;;;;;;3.73;100.00;100483.47;5553412;32;34489;-86
2023/03/03 07:44:42;;;;;;;57.50;28.58;;;;;;;3.61;100.00;100490.66;5553974;32;33862;-86
2023/03/03 07:47:45;;;;;;;51.75;28.80;;;;;;;3.50;100.00;100488.25;5553455;32;34323;-86
2023/03/03 07:50:48;;;;;;;53.38;30.30;;;;;;;3.76;100.00;100484.25;5554064;32;34683;-85
2023/03/03 07:54:13;;;;;;;52.25;30.40;;;;;;;4.02;100.00;100482.00;5548029;32;33948;-86
2023/03/03 07:57:16;;;;;;;61.80;32.72;;;;;;;4.07;100.00;100487.16;5529446;32;34125;-84
2023/03/03 08:00:18;;;;;;;59.55;32.20;;;;;;;3.95;100.00;100483.88;5532077;32;34666;-84
2023/03/03 08:03:22;;;;;;;58.22;31.42;;;;;;;4.03;100.00;100483.75;5540862;32;33284;-83
2023/03/03 08:06:36;;;;;;;53.75;29.75;;;;;;;4.19;100.00;100481.66;5527892;32;34677;-84
2023/03/03 08:09:44;;;;;;;54.10;30.83;;;;;;;4.50;100.00;100478.34;5528650;32;34058;-85
2023/03/03 08:12:46;;;;;;;56.97;32.00;;;;;;;4.56;100.00;100477.31;5532406;32;33967;-87
2023/03/03 08:15:52;;;;;;;63.85;33.40;;;;;;;4.64;100.00;100479.78;5528910;32;33860;-85
2023/03/03 08:18:59;;;;;;;60.80;34.03;;;;;;;4.68;100.00;100476.19;5531813;32;33743;-85
2023/03/03 08:22:15;;;;;;;64.68;35.80;;;;;;;4.75;100.00;100477.75;5541333;32;35185;-84
2023/03/03 08:25:17;;;;;;;62.97;34.25;;;;;;;4.76;100.00;100482.13;5544968;32;33983;-85
2023/03/03 08:28:26;;;;;;;60.58;34.55;;;;;;;5.09;100.00;100476.91;5541123;32;32347;-84
2023/03/03 08:31:29;;;;;;;70.70;34.30;;;;;;;5.39;100.00;100474.41;5536551;32;34115;-83
2023/03/03 08:34:43;;;;;;;58.45;33.45;;;;;;;5.63;100.00;100476.44;5532067;32;33911;-82
2023/03/03 08:37:46;;;;;;;63.92;34.05;;;;;;;5.73;100.00;100477.03;5520491;32;34316;-82
2023/03/03 08:40:49;;;;;;;60.40;33.47;;;;;;;5.98;100.00;100476.34;5522794;32;34150;-82
2023/03/03 08:43:51;;;;;;;64.93;32.35;;;;;;;6.36;100.00;100484.91;5530111;32;33820;-83
2023/03/03 08:46:54;;;;;;;63.78;33.33;;;;;;;6.47;100.00;100481.94;5518119;32;36034;-83
2023/03/03 08:49:57;;;;;;;60.58;33.60;;;;;;;6.94;100.00;100483.12;5519965;32;33881;-83
2023/03/03 08:53:00;;;;;;;61.20;34.22;;;;;;;7.17;100.00;100477.06;5533305;32;33843;-83
2023/03/03 08:56:04;;;;;;;59.90;34.50;;;;;;;7.28;100.00;100480.19;5533523;32;33890;-83
2023/03/03 08:59:07;;;;;;;67.25;34.90;;;;;;;7.37;100.00;100473.75;5518771;32;34233;-83
2023/03/03 09:02:09;;;;;;;60.50;33.70;;;;;;;8.13;97.08;100475.41;5520326;32;34658;-83
2023/03/03 09:05:13;;;;;;;62.45;35.40;;;;;;;8.71;92.67;100473.22;5529621;32;33874;-83
2023/03/03 09:08:16;;;;;;;62.60;36.90;;;;;;;8.57;92.00;100473.78;5522779;32;34120;-83
2023/03/03 09:11:25;;;;;;;67.37;35.47;;;;;;;7.97;95.79;100469.84;5527938;32;33863;-84
2023/03/03 09:14:28;;;;;;;61.13;35.35;;;;;;;8.31;93.46;100473.84;5523527;32;33913;-84
2023/03/03 09:17:34;;;;;;;62.22;35.65;;;;;;;8.57;91.67;100465.84;5516345;32;33657;-88
2023/03/03 09:20:39;;;;;;;63.85;36.63;;;;;;;8.85;90.79;100464.75;5514008;32;34079;-89
2023/03/03 09:23:49;;;;;;;61.42;35.33;;;;;;;8.93;90.45;100467.06;5521182;32;34188;-90
2023/03/03 09:26:53;;;;;;;64.43;35.38;;;;;;;9.22;88.75;100463.19;5517160;32;35099;-85
2023/03/03 09:30:01;;;;;;;56.60;34.63;;;;;;;9.69;87.33;100455.88;5522494;32;34291;-85
2023/03/03 09:33:22;;;;;;;58.92;34.22;;;;;;;10.24;82.77;100462.22;5518892;32;34498;-85
2023/03/03 09:36:34;;;;;;;56.73;34.07;;;;;;;10.68;81.04;100454.88;5533639;32;33799;-85
2023/03/03 09:39:36;;;;;;;49.15;29.87;;;;;;;11.65;77.78;100458.88;5527225;32;34233;-84
2023/03/03 09:43:22;;;;;;;48.80;27.35;;;;;;;12.49;76.51;100452.59;5530204;32;33713;-84
2023/03/03 09:46:34;;;;;;;30.30;20.02;;;;;;;13.10;73.50;100457.09;5512381;32;33483;-83
2023/03/03 09:49:50;;;;;;;36.45;21.92;;;;;;;13.07;71.92;100457.25;5527450;32;33965;-84
2023/03/03 09:53:15;;;;;;;36.28;19.05;;;;;;;13.00;75.47;100446.13;5522898;32;33924;-84
2023/03/03 09:56:29;;;;;;;30.83;18.15;;;;;;;13.44;71.57;100456.88;5522940;32;34670;-83
2023/03/03 09:59:34;;;;;;;31.60;19.02;;;;;;;14.38;69.26;100455.53;5534461;32;34027;-87
2023/03/03 10:03:03;;;;;;;31.52;17.75;;;;;;;14.93;65.76;100452.00;5535995;32;33636;-84
2023/03/03 10:06:18;;;;;;;33.67;16.37;;;;;;;14.80;64.23;100447.50;5523983;32;34601;-83
2023/03/03 10:09:50;;;;;;;26.70;15.43;;;;;;;14.75;65.63;100443.44;5533219;32;34562;-86
2023/03/03 10:13:15;;;;;;;23.65;14.68;;;;;;;14.69;62.68;100439.34;5533423;32;34249;-86
2023/03/03 10:16:44;;;;;;;24.05;14.23;;;;;;;14.42;64.06;100429.50;5528762;32;33953;-86
2023/03/03 10:19:53;;;;;;;24.87;13.90;;;;;;;15.01;60.47;100428.34;5535362;32;34112;-86
2023/03/03 10:23:07;;;;;;;26.92;14.20;;;;;;;14.04;64.44;100435.50;5535494;32;34462;-86
2023/03/03 10:26:26;;;;;;;23.25;12.88;;;;;;;14.57;63.26;100424.13;5536859;32;34239;-86
2023/03/03 10:29:55;;;;;;;21.25;11.85;;;;;;;14.80;60.82;100431.47;5550024;32;34230;-86
2023/03/03 10:33:26;;;;;;;19.37;12.73;;;;;;;15.56;59.36;100422.81;5542507;32;34885;-87
2023/03/03 10:36:43;;;;;;;20.55;12.15;;;;;;;14.96;59.05;100425.12;5531337;32;33920;-87
2023/03/03 10:40:09;;;;;;;20.90;12.00;;;;;;;15.45;60.45;100414.69;5519816;32;33884;-87
2023/03/03 10:43:56;;;;;;;17.17;11.93;;;;;;;15.69;59.11;100411.25;5513869;32;34275;-87
2023/03/03 10:46:59;;;;;;;18.00;12.93;;;;;;;14.68;60.31;100409.09;5532519;32;34120;-86
2023/03/03 10:50:30;;;;;;;17.40;11.52;;;;;;;14.33;58.80;100406.09;5534593;32;34001;-87
2023/03/03 10:53:43;;;;;;;17.70;12.20;;;;;;;15.29;57.58;100402.38;5546365;32;33787;-88
2023/03/03 10:57:06;;;;;;;17.10;11.18;;;;;;;17.83;47.40;100396.28;5534754;32;34891;-88
2023/03/03 11:00:37;;;;;;;20.55;9.80;;;;;;;20.90;39.14;100402.44;5545191;32;33977;-87
2023/03/03 11:03:46;;;;;;;;;;;;;;;21.52;36.34;100394.78;5524602;32;33798;-87
2023/03/03 11:07:01;;;;;;;14.90;9.90;;;;;;;19.63;38.51;100392.13;5532605;32;34390;-87
2023/03/03 11:10:37;;;;;;;17.98;8.90;;;;;;;18.44;41.24;100385.09;5534176;32;33872;-87
2023/03/03 11:14:02;;;;;;;18.45;9.73;;;;;;;17.57;42.98;100375.94;5545063;32;34256;-88
2023/03/03 11:17:09;;;;;;;15.63;10.52;;;;;;;15.94;46.48;100367.56;5541745;32;33633;-86
2023/03/03 11:20:26;;;;;;;18.42;10.15;;;;;;;16.20;46.43;100366.63;5541590;32;33995;-90
2023/03/03 11:23:31;;;;;;;17.10;10.35;;;;;;;17.96;42.94;100375.56;5533016;32;34052;-86
2023/03/03 11:27:14;;;;;;;15.93;9.38;;;;;;;21.25;35.63;100364.06;5535379;32;34390;-85
2023/03/03 11:30:34;;;;;;;15.57;10.77;;;;;;;20.35;36.71;100363.44;5533259;32;34754;-86
2023/03/03 11:33:43;;;;;;;17.05;11.40;;;;;;;18.99;39.34;100361.72;5540324;32;34308;-86
2023/03/03 11:36:56;;;;;;;16.12;10.02;;;;;;;17.57;41.97;100348.25;5537483;32;33444;-86
2023/03/03 11:40:16;;;;;;;16.95;9.57;;;;;;;16.27;45.13;100338.44;5523015;32;34040;-86
2023/03/03 11:43:26;;;;;;;13.65;8.55;;;;;;;15.95;47.91;100347.91;5532095;32;34184;-86
2023/03/03 11:46:48;;;;;;;15.33;8.77;;;;;;;16.11;49.61;100341.41;5532319;32;34339;-87
2023/03/03 11:49:59;;;;;;;12.30;9.20;;;;;;;16.20;46.34;100342.56;5531765;32;32795;-87
2023/03/03 11:53:08;;;;;;;14.70;9.10;;;;;;;15.28;46.57;100341.87;5533523;32;34216;-91
2023/03/03 11:56:40;;;;;;;16.92;9.23;;;;;;;13.18;52.37;100331.47;5537472;32;34081;-87
2023/03/03 11:59:48;;;;;;;14.18;8.90;;;;;;;12.40;56.17;100325.41;5539701;32;34034;-86
2023/03/03 12:03:20;;;;;;;14.55;9.25;;;;;;;12.32;57.97;100319.66;5542357;32;32762;-87
2023/03/03 12:06:45;;;;;;;12.30;8.95;;;;;;;12.84;56.10;100322.84;5533664;32;34108;-87
2023/03/03 12:10:02;;;;;;;10.30;7.35;;;;;;;13.31;54.39;100316.44;5535398;32;33638;-87
2023/03/03 12:13:32;;;;;;;12.90;9.00;;;;;;;13.46;51.50;100321.78;5536864;32;33893;-86
2023/03/03 12:16:38;;;;;;;22.00;13.07;;;;;;;13.59;51.60;100311.19;5534634;32;34079;-86
2023/03/03 12:20:08;;;;;;;24.77;13.52;;;;;;;13.42;55.09;100313.09;5531460;32;34760;-87
2023/03/03 12:23:25;;;;;;;18.95;13.10;;;;;;;13.30;56.37;100313.84;5518596;32;33132;-87
2023/03/03 12:26:42;;;;;;;19.10;12.32;;;;;;;13.28;56.78;100310.44;5533356;32;32817;-86
2023/03/03 12:30:20;;;;;;;16.10;9.88;;;;;;;13.33;55.66;100303.03;5532789;32;34631;-87
2023/03/03 12:33:49;;;;;;;18.42;9.80;;;;;;;13.80;51.87;100302.78;5524172;32;34407;-86
2023/03/03 12:37:34;;;;;;;17.35;10.70;;;;;;;13.38;53.10;100300.06;5527249;32;34481;-87
2023/03/03 12:40:57;;;;;;;16.80;10.65;;;;;;;13.46;52.94;100303.12;5553338;32;33488;-87
2023/03/03 12:44:17;;;;;;;20.33;9.57;;;;;;;13.55;52.13;100309.69;5544942;32;35063;-91
2023/03/03 12:47:26;;;;;;;18.20;10.70;;;;;;;13.68;51.23;100304.44;5561055;32;34341;-87
2023/03/03 12:51:01;;;;;;;15.18;10.57;;;;;;;14.12;50.87;100313.16;5541441;32;34397;-87
2023/03/03 12:54:16;;;;;;;16.33;10.48;;;;;;;13.80;50.89;100308.09;5542008;32;33759;-87
2023/03/03 12:57:25;;;;;;;16.42;10.80;;;;;;;13.52;50.77;100299.22;5534793;32;33970;-87
2023/03/03 13:00:51;;;;;;;14.57;10.23;;;;;;;13.33;51.15;100303.03;5553517;32;34160;-86
2023/03/03 13:03:57;;;;;;;;;;;;;;;13.39;50.57;100302.63;5547298;32;35305;-86
2023/03/03 13:07:40;;;;;;;16.83;10.55;;;;;;;13.16;51.27;100306.72;5552166;32;33511;-87
2023/03/03 13:10:53;;;;;;;13.57;9.77;;;;;;;13.21;51.64;100299.28;5524604;32;35362;-91
2023/03/03 13:14:21;;;;;;;18.50;9.63;;;;;;;13.53;50.02;100292.94;5553113;32;34112;-89
2023/03/03 13:17:27;;;;;;;15.43;9.48;;;;;;;13.71;48.90;100286.44;5549378;32;33654;-88
2023/03/03 13:20:36;;;;;;;12.73;8.73;;;;;;;13.50;48.51;100282.47;5546088;32;33956;-86
2023/03/03 13:23:47;;;;;;;14.32;9.50;;;;;;;13.65;48.42;100289.50;5546868;32;33898;-86
2023/03/03 13:27:17;;;;;;;14.82;9.82;;;;;;;13.68;47.17;100291.94;5546739;32;34484;-87
2023/03/03 13:30:26;;;;;;;13.57;9.82;;;;;;;13.52;47.81;100288.56;5538144;32;34009;-87
2023/03/03 13:33:34;;;;;;;19.10;10.03;;;;;;;13.50;48.28;100277.13;5548807;32;35246;-88
2023/03/03 13:36:49;;;;;;;16.98;9.52;;;;;;;13.35;47.95;100269.12;5554992;32;34096;-87
2023/03/03 13:40:16;;;;;;;17.05;9.40;;;;;;;13.50;46.99;100269.12;5552759;32;34777;-88
2023/03/03 13:43:25;;;;;;;14.23;8.88;;;;;;;13.13;47.67;100270.47;5553895;32;34050;-89
2023/03/03 13:46:59;;;;;;;16.33;9.77;;;;;;;13.33;47.05;100265.72;5553196;32;35202;-88
2023/03/03 13:50:22;;;;;;;13.62;8.45;;;;;;;13.29;46.57;100275.72;5551958;32;33973;-86
2023/03/03 13:53:49;;;;;;;16.42;8.80;;;;;;;13.11;45.83;100266.19;5550431;32;33943;-87
2023/03/03 13:57:16;;;;;;;18.02;10.73;;;;;;;12.90;48.34;100266.56;5553277;32;33544;-87
2023/03/03 14:00:33;;;;;;;17.98;11.75;;;;;;;13.14;49.61;100266.88;5547796;32;35148;-87
2023/03/03 14:03:58;;;;;;;20.70;12.95;;;;;;;12.67;51.02;100267.03;5541528;32;35031;-86
2023/03/03 14:07:27;;;;;;;24.00;13.32;;;;;;;12.87;50.60;100259.62;5534364;32;34520;-85
2023/03/03 14:11:19;;;;;;;24.00;13.85;;;;;;;12.28;51.26;100257.81;5538820;32;33693;-89
2023/03/03 14:14:40;;;;;;;;;;;;;;;12.09;53.35;100250.94;5521129;32;34024;-86
2023/03/03 14:17:43;;;;;;;;;;;;;;;12.30;52.11;100255.91;5553481;32;34514;-86
2023/03/03 14:20:47;;;;;;;24.60;14.77;;;;;;;12.02;52.87;100251.34;5551357;32;34217;-86
2023/03/03 14:24:16;;;;;;;19.73;14.30;;;;;;;11.94;51.74;100247.31;5553986;32;33955;-86
2023/03/03 14:27:24;;;;;;;26.33;14.02;;;;;;;11.90;51.61;100242.25;5554476;32;34641;-85
2023/03/03 14:30:32;;;;;;;23.50;13.75;;;;;;;12.04;51.62;100244.16;5554168;32;33449;-85
2023/03/03 14:33:35;;;;;;;24.15;15.30;;;;;;;11.70;52.01;100233.63;5554226;32;34365;-87
2023/03/03 14:36:41;;;;;;;24.70;14.43;;;;;;;11.51;52.08;100239.97;5550741;32;33864;-87
2023/03/03 14:39:59;;;;;;;27.10;15.60;;;;;;;11.56;52.39;100232.59;5553129;32;34613;-86
2023/03/03 14:43:18;;;;;;;22.62;14.98;;;;;;;11.42;52.58;100235.19;5551789;32;35059;-87
2023/03/03 14:46:26;;;;;;;24.98;15.63;;;;;;;11.31;53.23;100238.41;5551840;32;35353;-90
2023/03/03 14:49:33;;;;;;;24.83;16.02;;;;;;;11.12;53.62;100246.53;5551912;32;34717;-91
2023/03/03 14:52:37;;;;;;;27.13;16.23;;;;;;;10.94;54.48;100240.41;5551687;32;34031;-87
2023/03/03 14:55:43;;;;;;;24.73;15.85;;;;;;;10.77;55.47;100239.53;5551323;32;34239;-88
2023/03/03 14:58:46;;;;;;;26.60;16.15;;;;;;;10.65;55.88;100239.22;5550599;32;34789;-87
2023/03/03 15:02:28;;;;;;;28.17;15.43;;;;;;;10.54;55.94;100238.06;5551792;32;33835;-88
2023/03/03 15:05:31;;;;;;;26.90;15.60;;;;;;;10.48;56.40;100233.94;5552705;32;34473;-87
2023/03/03 15:08:40;;;;;;;30.50;16.02;;;;;;;10.59;56.46;100244.00;5552169;32;33767;-87
2023/03/03 15:11:43;;;;;;;25.10;15.52;;;;;;;10.62;56.14;100246.50;5551312;32;35195;-87
2023/03/03 15:14:49;;;;;;;25.70;15.95;;;;;;;10.68;55.73;100248.84;5546094;32;34959;-87
2023/03/03 15:18:12;;;;;;;23.77;15.73;;;;;;;10.67;55.64;100247.13;5538864;32;33720;-87
2023/03/03 15:21:25;;;;;;;29.50;16.23;;;;;;;10.55;56.36;100248.59;5538380;32;35031;-87
2023/03/03 15:24:40;;;;;;;27.48;16.98;;;;;;;10.45;56.67;100248.22;5534334;32;34061;-88
2023/03/03 15:28:19;;;;;;;29.52;17.08;;;;;;;10.23;57.02;100256.38;5538451;32;34225;-86
2023/03/03 15:31:31;;;;;;;25.05;15.93;;;;;;;10.11;57.41;100255.22;5541195;32;35143;-89
2023/03/03 15:34:43;;;;;;;25.10;15.93;;;;;;;10.44;56.98;100257.13;5540284;32;35187;-86
2023/03/03 15:37:54;;;;;;;24.37;15.52;;;;;;;11.00;54.50;100259.53;5547413;32;33891;-86
2023/03/03 15:41:01;;;;;;;25.45;15.23;;;;;;;10.93;54.17;100258.16;5556282;32;34347;-87
2023/03/03 15:44:17;;;;;;;23.15;15.43;;;;;;;10.38;55.18;100260.06;5575132;32;33682;-86
2023/03/03 15:47:40;;;;;;;25.50;15.88;;;;;;;10.10;56.30;100261.41;5577437;32;34395;-87
2023/03/03 15:51:03;;;;;;;24.42;15.60;;;;;;;9.88;56.69;100258.97;5574840;32;33984;-86
2023/03/03 15:54:16;;;;;;;23.02;15.02;;;;;;;9.97;56.02;100262.03;5568691;32;33826;-86
2023/03/03 15:57:43;;;;;;;23.65;15.70;;;;;;;9.81;56.58;100261.91;5568564;32;34573;-86
2023/03/03 16:01:01;;;;;;;24.80;15.50;;;;;;;9.65;57.17;100268.91;5556052;32;34794;-86
2023/03/03 16:04:17;;;;;;;26.62;15.18;;;;;;;9.77;56.70;100276.28;5550707;32;34966;-87
2023/03/03 16:07:50;;;;;;;26.50;16.40;;;;;;;9.44;57.56;100272.50;5552937;32;33998;-87
2023/03/03 16:11:33;;;;;;;27.62;16.95;;;;;;;9.32;58.33;100270.41;5550816;32;33932;-86
2023/03/03 16:14:53;;;;;;;28.08;16.50;;;;;;;9.16;58.81;100283.50;5550500;32;33843;-86
2023/03/03 16:17:58;;;;;;;33.10;17.77;;;;;;;9.15;59.31;100287.91;5550895;32;34509;-86
2023/03/03 16:21:20;;;;;;;28.10;17.23;;;;;;;9.04;59.72;100282.25;5564828;32;34179;-86
2023/03/03 16:24:39;;;;;;;29.75;19.05;;;;;;;8.85;60.18;100282.22;5570283;32;33863;-86
2023/03/03 16:27:57;;;;;;;30.00;18.45;;;;;;;8.83;60.30;100289.34;5570954;32;35045;-86
2023/03/03 16:31:35;;;;;;;37.22;18.98;;;;;;;8.65;61.36;100288.37;5573507;32;34750;-90
2023/03/03 16:35:01;;;;;;;30.75;18.95;;;;;;;8.42;62.70;100280.47;5572689;32;34206;-86
2023/03/03 16:38:21;;;;;;;36.35;20.60;;;;;;;8.23;62.96;100290.94;5578280;32;33782;-86
2023/03/03 16:41:48;;;;;;;31.45;19.95;;;;;;;8.26;62.95;100293.47;5577277;32;34227;-86
2023/03/03 16:44:59;;;;;;;32.40;19.52;;;;;;;8.03;63.73;100297.91;5578281;32;33806;-86
